Eastman, Wisconsin
Current Conditions -  °F | °C
As of 2:35 PM on Tuesday 25 Nov 2014 (Local Time) from KPDC Reporting Station
Clear Clear  
Wind Chill: 16°   Ceiling: Unl
Heat Index: 24°   Visibility: 10mi
Dew Point: 13°   Wind: 7mph
Humidity: 62%   Direction: 250°WSW
Pressure: 30.11"   Gusts: NA
Location:  43.17°N, 91.02°W
Report Text: KPDC 252035Z AUTO 25006KT 10SM CLR M04/M10 A3011 RMK AO2 T10421105
Loading
Personal Weather Stations






























Interactive Weather Map New forecast layout! Learn more

10-Day Weather Forecast

Advertisements
Track Severe Weather on mobile